sensor_id;sensor_type;location;lat;lon;timestamp;P1;durP1;ratioP1;P2;durP2;ratioP2
69917;SDS011;57203;42.672;23.334;2023-04-01T00:00:40;8.4;;;4.5;;
69917;SDS011;57203;42.672;23.334;2023-04-01T00:01:40;9.1;;;5.6;;
69917;SDS011;57203;42.672;23.334;2023-04-01T00:02:40;11.4;;;5.4;;
69917;SDS011;57203;42.672;23.334;2023-04-01T00:03:40;13.9;;;4.8;;
69917;SDS011;57203;42.672;23.334;2023-04-01T00:04:41;10.2;;;6.0;;
69917;SDS011;57203;42.672;23.334;2023-04-01T00:05:41;12.1;;;6.8;;
69917;SDS011;57203;42.672;23.334;2023-04-01T00:06:41;12.1;;;7.4;;
69917;SDS011;57203;42.672;23.334;2023-04-01T00:07:41;15.3;;;8.1;;
69917;SDS011;57203;42.672;23.334;2023-04-01T00:08:42;15.9;;;8.6;;
69917;SDS011;57203;42.672;23.334;2023-04-01T00:09:42;15.0;;;9.2;;
69917;SDS011;57203;42.672;23.334;2023-04-01T00:10:42;17.2;;;9.3;;
69917;SDS011;57203;42.672;23.334;2023-04-01T00:11:42;16.1;;;10.9;;
69917;SDS011;57203;42.672;23.334;2023-04-01T00:12:43;19.4;;;9.7;;
69917;SDS011;57203;42.672;23.334;2023-04-01T00:13:43;18.1;;;14.3;;
69917;SDS011;57203;42.672;23.334;2023-04-01T00:14:43;26.9;;;12.3;;
69917;SDS011;57203;42.672;23.334;2023-04-01T00:15:43;35.0;;;21.2;;
69917;SDS011;57203;42.672;23.334;2023-04-01T00:16:43;35.0;;;13.3;;
69917;SDS011;57203;42.672;23.334;2023-04-01T00:17:43;23.4;;;12.0;;
69917;SDS011;57203;42.672;23.334;2023-04-01T00:18:43;24.1;;;12.2;;
69917;SDS011;57203;42.672;23.334;2023-04-01T00:19:44;25.2;;;11.3;;
69917;SDS011;57203;42.672;23.334;2023-04-01T00:20:44;25.2;;;11.9;;
69917;SDS011;57203;42.672;23.334;2023-04-01T00:21:44;21.8;;;12.1;;
69917;SDS011;57203;42.672;23.334;2023-04-01T00:23:44;20.1;;;11.9;;
69917;SDS011;57203;42.672;23.334;2023-04-01T00:24:44;23.1;;;11.6;;
69917;SDS011;57203;42.672;23.334;2023-04-01T00:25:45;20.3;;;11.2;;
69917;SDS011;57203;42.672;23.334;2023-04-01T00:26:45;20.3;;;12.1;;
69917;SDS011;57203;42.672;23.334;2023-04-01T00:27:45;23.7;;;12.0;;
69917;SDS011;57203;42.672;23.334;2023-04-01T00:28:46;22.6;;;11.9;;
69917;SDS011;57203;42.672;23.334;2023-04-01T00:29:46;22.8;;;11.8;;
69917;SDS011;57203;42.672;23.334;2023-04-01T00:30:46;22.8;;;11.2;;
69917;SDS011;57203;42.672;23.334;2023-04-01T00:31:46;21.9;;;11.0;;
69917;SDS011;57203;42.672;23.334;2023-04-01T00:32:46;20.9;;;11.2;;
69917;SDS011;57203;42.672;23.334;2023-04-01T00:33:46;24.0;;;11.4;;
69917;SDS011;57203;42.672;23.334;2023-04-01T00:34:49;18.8;;;12.0;;
69917;SDS011;57203;42.672;23.334;2023-04-01T00:35:47;21.8;;;11.7;;
69917;SDS011;57203;42.672;23.334;2023-04-01T00:36:47;21.8;;;10.1;;
69917;SDS011;57203;42.672;23.334;2023-04-01T00:37:47;20.9;;;9.6;;
69917;SDS011;57203;42.672;23.334;2023-04-01T00:38:47;18.7;;;10.0;;
69917;SDS011;57203;42.672;23.334;2023-04-01T00:39:47;15.3;;;9.3;;
69917;SDS011;57203;42.672;23.334;2023-04-01T00:40:48;17.8;;;9.9;;
69917;SDS011;57203;42.672;23.334;2023-04-01T00:41:48;17.9;;;9.7;;
69917;SDS011;57203;42.672;23.334;2023-04-01T00:42:48;16.8;;;10.6;;
69917;SDS011;57203;42.672;23.334;2023-04-01T00:43:49;17.7;;;10.8;;
69917;SDS011;57203;42.672;23.334;2023-04-01T00:44:49;19.1;;;9.9;;
69917;SDS011;57203;42.672;23.334;2023-04-01T00:45:49;16.8;;;10.5;;
69917;SDS011;57203;42.672;23.334;2023-04-01T00:46:49;20.7;;;10.3;;
69917;SDS011;57203;42.672;23.334;2023-04-01T00:47:49;16.6;;;9.9;;
69917;SDS011;57203;42.672;23.334;2023-04-01T00:48:50;15.0;;;10.0;;
69917;SDS011;57203;42.672;23.334;2023-04-01T00:49:50;18.4;;;9.9;;
69917;SDS011;57203;42.672;23.334;2023-04-01T00:50:50;16.6;;;9.4;;
69917;SDS011;57203;42.672;23.334;2023-04-01T00:51:51;16.6;;;10.1;;
69917;SDS011;57203;42.672;23.334;2023-04-01T00:52:50;18.1;;;9.7;;
69917;SDS011;57203;42.672;23.334;2023-04-01T00:53:51;16.0;;;9.4;;
69917;SDS011;57203;42.672;23.334;2023-04-01T00:54:52;16.0;;;9.2;;
69917;SDS011;57203;42.672;23.334;2023-04-01T00:55:51;15.4;;;8.8;;
69917;SDS011;57203;42.672;23.334;2023-04-01T00:56:52;15.8;;;8.3;;
69917;SDS011;57203;42.672;23.334;2023-04-01T00:57:51;17.7;;;8.8;;
69917;SDS011;57203;42.672;23.334;2023-04-01T00:58:52;14.4;;;8.2;;
69917;SDS011;57203;42.672;23.334;2023-04-01T01:00:52;16.0;;;8.4;;
69917;SDS011;57203;42.672;23.334;2023-04-01T01:01:52;14.1;;;8.1;;
69917;SDS011;57203;42.672;23.334;2023-04-01T01:02:52;14.6;;;8.2;;
69917;SDS011;57203;42.672;23.334;2023-04-01T01:03:52;13.8;;;8.0;;
69917;SDS011;57203;42.672;23.334;2023-04-01T01:04:52;15.8;;;8.1;;
69917;SDS011;57203;42.672;23.334;2023-04-01T01:05:57;15.8;;;8.2;;
69917;SDS011;57203;42.672;23.334;2023-04-01T01:06:56;13.0;;;8.5;;
69917;SDS011;57203;42.672;23.334;2023-04-01T01:10:53;13.2;;;8.2;;
69917;SDS011;57203;42.672;23.334;2023-04-01T01:11:54;13.2;;;8.0;;
69917;SDS011;57203;42.672;23.334;2023-04-01T01:12:55;12.9;;;8.1;;
69917;SDS011;57203;42.672;23.334;2023-04-01T01:13:56;15.0;;;8.3;;
69917;SDS011;57203;42.672;23.334;2023-04-01T01:14:56;13.8;;;7.9;;
69917;SDS011;57203;42.672;23.334;2023-04-01T01:15:56;14.8;;;7.8;;
69917;SDS011;57203;42.672;23.334;2023-04-01T01:16:57;15.9;;;7.9;;
69917;SDS011;57203;42.672;23.334;2023-04-01T01:17:56;14.4;;;7.5;;
69917;SDS011;57203;42.672;23.334;2023-04-01T01:18:56;12.0;;;8.0;;
69917;SDS011;57203;42.672;23.334;2023-04-01T01:20:00;13.1;;;7.2;;
69917;SDS011;57203;42.672;23.334;2023-04-01T01:20:59;13.1;;;6.9;;
69917;SDS011;57203;42.672;23.334;2023-04-01T01:22:01;10.5;;;7.2;;
69917;SDS011;57203;42.672;23.334;2023-04-01T01:22:56;12.6;;;7.0;;
69917;SDS011;57203;42.672;23.334;2023-04-01T01:24:00;14.1;;;7.7;;
69917;SDS011;57203;42.672;23.334;2023-04-01T01:24:56;13.3;;;7.9;;
69917;SDS011;57203;42.672;23.334;2023-04-01T01:25:59;13.0;;;7.2;;
69917;SDS011;57203;42.672;23.334;2023-04-01T01:27:58;12.8;;;7.0;;
69917;SDS011;57203;42.672;23.334;2023-04-01T01:28:59;11.4;;;7.2;;
69917;SDS011;57203;42.672;23.334;2023-04-01T01:30:00;11.4;;;6.6;;
69917;SDS011;57203;42.672;23.334;2023-04-01T01:30:58;13.4;;;6.7;;
69917;SDS011;57203;42.672;23.334;2023-04-01T01:34:01;9.7;;;5.6;;
69917;SDS011;57203;42.672;23.334;2023-04-01T01:35:05;9.7;;;6.1;;
69917;SDS011;57203;42.672;23.334;2023-04-01T01:35:58;10.6;;;6.2;;
69917;SDS011;57203;42.672;23.334;2023-04-01T01:37:00;12.7;;;6.4;;
69917;SDS011;57203;42.672;23.334;2023-04-01T01:38:59;10.9;;;6.6;;
69917;SDS011;57203;42.672;23.334;2023-04-01T01:40:00;9.0;;;6.2;;
69917;SDS011;57203;42.672;23.334;2023-04-01T01:40:59;9.4;;;5.9;;
69917;SDS011;57203;42.672;23.334;2023-04-01T01:42:00;9.4;;;5.7;;
69917;SDS011;57203;42.672;23.334;2023-04-01T01:43:00;9.6;;;10.4;;
69917;SDS011;57203;42.672;23.334;2023-04-01T01:44:00;16.2;;;7.0;;
69917;SDS011;57203;42.672;23.334;2023-04-01T01:45:00;13.1;;;5.6;;
69917;SDS011;57203;42.672;23.334;2023-04-01T01:46:01;9.2;;;5.7;;
69917;SDS011;57203;42.672;23.334;2023-04-01T01:47:00;8.9;;;5.5;;
69917;SDS011;57203;42.672;23.334;2023-04-01T01:48:01;10.4;;;5.8;;
69917;SDS011;57203;42.672;23.334;2023-04-01T01:49:01;9.0;;;5.6;;
69917;SDS011;57203;42.672;23.334;2023-04-01T01:50:01;10.1;;;6.0;;
69917;SDS011;57203;42.672;23.334;2023-04-01T01:51:01;10.1;;;5.1;;
69917;SDS011;57203;42.672;23.334;2023-04-01T01:53:02;10.2;;;5.8;;
69917;SDS011;57203;42.672;23.334;2023-04-01T01:54:02;9.9;;;5.4;;
69917;SDS011;57203;42.672;23.334;2023-04-01T01:55:02;9.9;;;5.0;;
69917;SDS011;57203;42.672;23.334;2023-04-01T01:57:03;7.9;;;5.1;;
69917;SDS011;57203;42.672;23.334;2023-04-01T01:58:04;8.3;;;5.4;;
69917;SDS011;57203;42.672;23.334;2023-04-01T01:59:03;10.0;;;5.2;;
69917;SDS011;57203;42.672;23.334;2023-04-01T02:00:04;12.0;;;4.8;;
69917;SDS011;57203;42.672;23.334;2023-04-01T02:01:04;9.3;;;5.1;;
69917;SDS011;57203;42.672;23.334;2023-04-01T02:02:03;9.3;;;4.8;;
69917;SDS011;57203;42.672;23.334;2023-04-01T02:03:03;8.5;;;4.7;;
69917;SDS011;57203;42.672;23.334;2023-04-01T02:04:03;8.4;;;4.4;;
69917;SDS011;57203;42.672;23.334;2023-04-01T02:05:04;7.0;;;4.2;;
69917;SDS011;57203;42.672;23.334;2023-04-01T02:06:04;8.4;;;4.0;;
69917;SDS011;57203;42.672;23.334;2023-04-01T02:07:04;8.6;;;3.8;;
69917;SDS011;57203;42.672;23.334;2023-04-01T02:08:06;5.6;;;4.2;;
69917;SDS011;57203;42.672;23.334;2023-04-01T02:09:05;7.0;;;4.0;;
69917;SDS011;57203;42.672;23.334;2023-04-01T02:10:05;8.2;;;4.5;;
69917;SDS011;57203;42.672;23.334;2023-04-01T02:11:07;8.2;;;3.6;;
69917;SDS011;57203;42.672;23.334;2023-04-01T02:12:05;6.7;;;3.8;;
69917;SDS011;57203;42.672;23.334;2023-04-01T02:13:07;5.6;;;4.1;;
69917;SDS011;57203;42.672;23.334;2023-04-01T02:14:06;8.8;;;4.0;;
69917;SDS011;57203;42.672;23.334;2023-04-01T02:15:06;8.8;;;4.4;;
69917;SDS011;57203;42.672;23.334;2023-04-01T02:16:07;7.3;;;4.1;;
69917;SDS011;57203;42.672;23.334;2023-04-01T02:17:07;7.3;;;3.7;;
69917;SDS011;57203;42.672;23.334;2023-04-01T02:18:07;6.8;;;3.3;;
69917;SDS011;57203;42.672;23.334;2023-04-01T02:19:06;6.7;;;3.4;;
69917;SDS011;57203;42.672;23.334;2023-04-01T02:21:07;7.1;;;3.0;;
69917;SDS011;57203;42.672;23.334;2023-04-01T02:22:08;7.1;;;3.6;;
69917;SDS011;57203;42.672;23.334;2023-04-01T02:23:07;7.6;;;3.3;;
69917;SDS011;57203;42.672;23.334;2023-04-01T02:24:08;6.0;;;3.0;;
69917;SDS011;57203;42.672;23.334;2023-04-01T02:26:08;9.4;;;3.7;;
69917;SDS011;57203;42.672;23.334;2023-04-01T02:27:08;9.4;;;3.8;;
69917;SDS011;57203;42.672;23.334;2023-04-01T02:28:08;8.9;;;3.7;;
69917;SDS011;57203;42.672;23.334;2023-04-01T02:29:08;5.9;;;2.8;;
69917;SDS011;57203;42.672;23.334;2023-04-01T02:30:09;5.9;;;3.1;;
69917;SDS011;57203;42.672;23.334;2023-04-01T02:31:09;9.5;;;3.4;;
69917;SDS011;57203;42.672;23.334;2023-04-01T02:32:09;9.5;;;3.3;;
69917;SDS011;57203;42.672;23.334;2023-04-01T02:33:09;5.2;;;3.1;;
69917;SDS011;57203;42.672;23.334;2023-04-01T02:36:10;5.3;;;3.0;;
69917;SDS011;57203;42.672;23.334;2023-04-01T02:37:10;5.3;;;3.2;;
69917;SDS011;57203;42.672;23.334;2023-04-01T02:38:10;11.2;;;2.8;;
69917;SDS011;57203;42.672;23.334;2023-04-01T02:39:10;6.6;;;3.0;;
69917;SDS011;57203;42.672;23.334;2023-04-01T02:40:11;6.6;;;2.8;;
69917;SDS011;57203;42.672;23.334;2023-04-01T02:41:10;6.4;;;3.9;;
69917;SDS011;57203;42.672;23.334;2023-04-01T02:42:11;7.7;;;4.1;;
69917;SDS011;57203;42.672;23.334;2023-04-01T02:43:11;8.3;;;4.6;;
69917;SDS011;57203;42.672;23.334;2023-04-01T02:44:13;8.4;;;4.1;;
69917;SDS011;57203;42.672;23.334;2023-04-01T02:45:12;6.4;;;3.8;;
69917;SDS011;57203;42.672;23.334;2023-04-01T02:47:12;8.0;;;3.9;;
69917;SDS011;57203;42.672;23.334;2023-04-01T02:48:12;8.6;;;4.2;;
69917;SDS011;57203;42.672;23.334;2023-04-01T02:49:12;7.0;;;3.7;;
69917;SDS011;57203;42.672;23.334;2023-04-01T02:50:12;7.0;;;3.6;;
69917;SDS011;57203;42.672;23.334;2023-04-01T02:51:12;7.8;;;3.8;;
69917;SDS011;57203;42.672;23.334;2023-04-01T02:52:12;8.0;;;4.1;;
69917;SDS011;57203;42.672;23.334;2023-04-01T02:53:13;6.4;;;3.7;;
69917;SDS011;57203;42.672;23.334;2023-04-01T02:54:13;8.6;;;3.9;;
69917;SDS011;57203;42.672;23.334;2023-04-01T02:55:13;7.7;;;4.0;;
69917;SDS011;57203;42.672;23.334;2023-04-01T02:56:13;8.9;;;4.4;;
69917;SDS011;57203;42.672;23.334;2023-04-01T02:57:13;8.9;;;4.0;;
69917;SDS011;57203;42.672;23.334;2023-04-01T02:58:14;9.4;;;4.3;;
69917;SDS011;57203;42.672;23.334;2023-04-01T02:59:14;10.0;;;4.6;;
69917;SDS011;57203;42.672;23.334;2023-04-01T03:00:15;11.0;;;4.8;;
69917;SDS011;57203;42.672;23.334;2023-04-01T03:01:14;11.9;;;5.0;;
69917;SDS011;57203;42.672;23.334;2023-04-01T03:02:15;11.9;;;4.9;;
69917;SDS011;57203;42.672;23.334;2023-04-01T03:03:14;10.3;;;4.6;;
69917;SDS011;57203;42.672;23.334;2023-04-01T03:04:15;7.9;;;5.1;;
69917;SDS011;57203;42.672;23.334;2023-04-01T03:05:15;7.8;;;5.3;;
69917;SDS011;57203;42.672;23.334;2023-04-01T03:06:15;10.4;;;5.2;;
69917;SDS011;57203;42.672;23.334;2023-04-01T03:07:15;10.1;;;6.1;;
69917;SDS011;57203;42.672;23.334;2023-04-01T03:08:15;15.1;;;4.9;;
69917;SDS011;57203;42.672;23.334;2023-04-01T03:09:16;9.9;;;5.4;;
69917;SDS011;57203;42.672;23.334;2023-04-01T03:10:16;10.8;;;5.5;;
69917;SDS011;57203;42.672;23.334;2023-04-01T03:11:16;11.2;;;5.2;;
69917;SDS011;57203;42.672;23.334;2023-04-01T03:12:16;8.6;;;5.3;;
69917;SDS011;57203;42.672;23.334;2023-04-01T03:13:16;10.7;;;5.5;;
69917;SDS011;57203;42.672;23.334;2023-04-01T03:15:17;8.1;;;5.6;;
69917;SDS011;57203;42.672;23.334;2023-04-01T03:16:17;8.7;;;5.4;;
69917;SDS011;57203;42.672;23.334;2023-04-01T03:17:17;11.0;;;6.5;;
69917;SDS011;57203;42.672;23.334;2023-04-01T03:18:17;12.5;;;5.9;;
69917;SDS011;57203;42.672;23.334;2023-04-01T03:19:17;8.3;;;5.4;;
69917;SDS011;57203;42.672;23.334;2023-04-01T03:20:18;10.7;;;5.7;;
69917;SDS011;57203;42.672;23.334;2023-04-01T03:21:19;10.0;;;6.1;;
69917;SDS011;57203;42.672;23.334;2023-04-01T03:22:18;10.0;;;6.4;;
69917;SDS011;57203;42.672;23.334;2023-04-01T03:23:18;10.7;;;6.1;;
69917;SDS011;57203;42.672;23.334;2023-04-01T03:24:19;10.7;;;6.0;;
69917;SDS011;57203;42.672;23.334;2023-04-01T03:25:19;10.7;;;6.3;;
69917;SDS011;57203;42.672;23.334;2023-04-01T03:26:19;10.2;;;6.4;;
69917;SDS011;57203;42.672;23.334;2023-04-01T03:27:19;13.4;;;5.5;;
69917;SDS011;57203;42.672;23.334;2023-04-01T03:28:19;11.3;;;6.4;;
69917;SDS011;57203;42.672;23.334;2023-04-01T03:29:19;11.0;;;6.2;;
69917;SDS011;57203;42.672;23.334;2023-04-01T03:30:20;10.6;;;5.8;;
69917;SDS011;57203;42.672;23.334;2023-04-01T03:31:20;10.9;;;6.2;;
69917;SDS011;57203;42.672;23.334;2023-04-01T03:32:20;10.9;;;6.5;;
69917;SDS011;57203;42.672;23.334;2023-04-01T03:33:20;10.3;;;7.3;;
69917;SDS011;57203;42.672;23.334;2023-04-01T03:34:20;14.1;;;6.9;;
69917;SDS011;57203;42.672;23.334;2023-04-01T03:35:20;12.7;;;6.3;;
69917;SDS011;57203;42.672;23.334;2023-04-01T03:37:21;11.3;;;5.9;;
69917;SDS011;57203;42.672;23.334;2023-04-01T03:38:21;10.5;;;6.2;;
69917;SDS011;57203;42.672;23.334;2023-04-01T03:39:21;11.0;;;6.4;;
69917;SDS011;57203;42.672;23.334;2023-04-01T03:40:21;11.3;;;7.0;;
69917;SDS011;57203;42.672;23.334;2023-04-01T03:41:21;19.3;;;7.1;;
69917;SDS011;57203;42.672;23.334;2023-04-01T03:42:22;19.3;;;7.2;;
69917;SDS011;57203;42.672;23.334;2023-04-01T03:43:22;15.6;;;7.1;;
69917;SDS011;57203;42.672;23.334;2023-04-01T03:44:22;12.8;;;6.8;;
69917;SDS011;57203;42.672;23.334;2023-04-01T03:45:22;11.9;;;7.6;;
69917;SDS011;57203;42.672;23.334;2023-04-01T03:46:22;11.6;;;6.5;;
69917;SDS011;57203;42.672;23.334;2023-04-01T03:47:23;11.6;;;6.9;;
69917;SDS011;57203;42.672;23.334;2023-04-01T03:48:23;11.3;;;6.8;;
69917;SDS011;57203;42.672;23.334;2023-04-01T03:50:23;13.1;;;6.7;;
69917;SDS011;57203;42.672;23.334;2023-04-01T03:51:23;10.9;;;6.2;;
69917;SDS011;57203;42.672;23.334;2023-04-01T03:52:24;12.0;;;7.0;;
69917;SDS011;57203;42.672;23.334;2023-04-01T03:53:24;18.3;;;6.2;;
69917;SDS011;57203;42.672;23.334;2023-04-01T03:54:24;11.1;;;6.0;;
69917;SDS011;57203;42.672;23.334;2023-04-01T03:55:24;12.6;;;5.9;;
69917;SDS011;57203;42.672;23.334;2023-04-01T03:56:24;12.7;;;5.7;;
69917;SDS011;57203;42.672;23.334;2023-04-01T03:57:24;10.2;;;5.9;;
69917;SDS011;57203;42.672;23.334;2023-04-01T03:58:25;10.3;;;5.8;;
69917;SDS011;57203;42.672;23.334;2023-04-01T04:00:25;9.5;;;6.5;;
69917;SDS011;57203;42.672;23.334;2023-04-01T04:01:25;12.9;;;6.4;;
69917;SDS011;57203;42.672;23.334;2023-04-01T04:02:25;12.9;;;5.2;;
69917;SDS011;57203;42.672;23.334;2023-04-01T04:03:26;12.2;;;5.8;;
69917;SDS011;57203;42.672;23.334;2023-04-01T04:04:26;12.2;;;4.9;;
69917;SDS011;57203;42.672;23.334;2023-04-01T04:05:26;9.4;;;5.1;;
69917;SDS011;57203;42.672;23.334;2023-04-01T04:06:26;9.7;;;5.3;;
69917;SDS011;57203;42.672;23.334;2023-04-01T04:07:26;9.8;;;5.4;;
69917;SDS011;57203;42.672;23.334;2023-04-01T04:08:27;10.7;;;5.0;;
69917;SDS011;57203;42.672;23.334;2023-04-01T04:09:27;7.9;;;4.9;;
69917;SDS011;57203;42.672;23.334;2023-04-01T04:10:27;13.1;;;5.2;;
69917;SDS011;57203;42.672;23.334;2023-04-01T04:11:27;9.7;;;4.6;;
69917;SDS011;57203;42.672;23.334;2023-04-01T04:12:28;8.6;;;5.1;;
69917;SDS011;57203;42.672;23.334;2023-04-01T04:13:28;8.6;;;5.3;;
69917;SDS011;57203;42.672;23.334;2023-04-01T04:14:28;11.4;;;5.7;;
69917;SDS011;57203;42.672;23.334;2023-04-01T04:15:28;10.5;;;5.9;;
69917;SDS011;57203;42.672;23.334;2023-04-01T04:16:28;11.3;;;6.1;;
69917;SDS011;57203;42.672;23.334;2023-04-01T04:17:28;11.4;;;5.6;;
69917;SDS011;57203;42.672;23.334;2023-04-01T04:18:29;9.1;;;5.9;;
69917;SDS011;57203;42.672;23.334;2023-04-01T04:19:31;10.3;;;7.2;;
69917;SDS011;57203;42.672;23.334;2023-04-01T04:20:29;13.2;;;7.8;;
69917;SDS011;57203;42.672;23.334;2023-04-01T04:21:29;14.7;;;7.5;;
69917;SDS011;57203;42.672;23.334;2023-04-01T04:22:29;13.1;;;7.0;;
69917;SDS011;57203;42.672;23.334;2023-04-01T04:23:29;13.1;;;6.7;;
69917;SDS011;57203;42.672;23.334;2023-04-01T04:24:30;10.2;;;6.4;;
69917;SDS011;57203;42.672;23.334;2023-04-01T04:25:30;10.2;;;6.3;;
69917;SDS011;57203;42.672;23.334;2023-04-01T04:26:30;10.8;;;5.1;;
69917;SDS011;57203;42.672;23.334;2023-04-01T04:27:30;10.3;;;5.6;;
69917;SDS011;57203;42.672;23.334;2023-04-01T04:28:31;12.6;;;5.1;;
69917;SDS011;57203;42.672;23.334;2023-04-01T04:29:31;10.6;;;5.6;;
69917;SDS011;57203;42.672;23.334;2023-04-01T04:30:31;13.3;;;5.0;;
69917;SDS011;57203;42.672;23.334;2023-04-01T04:31:31;11.9;;;5.1;;
69917;SDS011;57203;42.672;23.334;2023-04-01T04:32:31;9.3;;;5.2;;
69917;SDS011;57203;42.672;23.334;2023-04-01T04:33:32;9.6;;;4.8;;
69917;SDS011;57203;42.672;23.334;2023-04-01T04:34:32;9.6;;;5.1;;
69917;SDS011;57203;42.672;23.334;2023-04-01T04:36:32;10.0;;;4.8;;
69917;SDS011;57203;42.672;23.334;2023-04-01T04:37:32;10.0;;;5.3;;
69917;SDS011;57203;42.672;23.334;2023-04-01T04:38:32;9.1;;;4.6;;
69917;SDS011;57203;42.672;23.334;2023-04-01T04:40:33;11.9;;;5.3;;
69917;SDS011;57203;42.672;23.334;2023-04-01T04:42:33;9.5;;;4.9;;
69917;SDS011;57203;42.672;23.334;2023-04-01T04:44:33;10.4;;;4.8;;
69917;SDS011;57203;42.672;23.334;2023-04-01T04:45:34;11.2;;;5.2;;
69917;SDS011;57203;42.672;23.334;2023-04-01T04:46:34;10.0;;;5.3;;
69917;SDS011;57203;42.672;23.334;2023-04-01T04:47:34;9.8;;;5.1;;
69917;SDS011;57203;42.672;23.334;2023-04-01T04:48:34;9.8;;;4.9;;
69917;SDS011;57203;42.672;23.334;2023-04-01T04:49:34;9.8;;;5.6;;
69917;SDS011;57203;42.672;23.334;2023-04-01T04:50:35;11.6;;;6.0;;
69917;SDS011;57203;42.672;23.334;2023-04-01T04:51:35;10.5;;;5.8;;
69917;SDS011;57203;42.672;23.334;2023-04-01T04:52:35;10.5;;;5.7;;
69917;SDS011;57203;42.672;23.334;2023-04-01T04:53:35;13.6;;;5.6;;
69917;SDS011;57203;42.672;23.334;2023-04-01T04:54:35;10.8;;;6.0;;
69917;SDS011;57203;42.672;23.334;2023-04-01T04:55:35;12.1;;;6.2;;
69917;SDS011;57203;42.672;23.334;2023-04-01T04:56:36;12.0;;;5.8;;
69917;SDS011;57203;42.672;23.334;2023-04-01T04:57:36;12.0;;;6.3;;
69917;SDS011;57203;42.672;23.334;2023-04-01T04:58:36;9.7;;;5.9;;
69917;SDS011;57203;42.672;23.334;2023-04-01T04:59:36;11.5;;;6.4;;
69917;SDS011;57203;42.672;23.334;2023-04-01T05:00:36;12.0;;;5.6;;
69917;SDS011;57203;42.672;23.334;2023-04-01T05:01:36;10.9;;;5.8;;
69917;SDS011;57203;42.672;23.334;2023-04-01T05:02:37;11.3;;;6.0;;
69917;SDS011;57203;42.672;23.334;2023-04-01T05:03:37;11.4;;;5.7;;
69917;SDS011;57203;42.672;23.334;2023-04-01T05:05:37;9.7;;;6.7;;
69917;SDS011;57203;42.672;23.334;2023-04-01T05:06:38;14.0;;;6.3;;
69917;SDS011;57203;42.672;23.334;2023-04-01T05:08:38;12.6;;;5.8;;
69917;SDS011;57203;42.672;23.334;2023-04-01T05:09:38;9.5;;;5.5;;
69917;SDS011;57203;42.672;23.334;2023-04-01T05:10:39;11.0;;;5.9;;
69917;SDS011;57203;42.672;23.334;2023-04-01T05:12:39;9.4;;;5.8;;
69917;SDS011;57203;42.672;23.334;2023-04-01T05:13:39;11.5;;;5.5;;
69917;SDS011;57203;42.672;23.334;2023-04-01T05:14:39;11.5;;;6.8;;
69917;SDS011;57203;42.672;23.334;2023-04-01T05:15:39;8.9;;;5.4;;
69917;SDS011;57203;42.672;23.334;2023-04-01T05:16:39;13.5;;;6.1;;
69917;SDS011;57203;42.672;23.334;2023-04-01T05:17:40;13.5;;;5.8;;
69917;SDS011;57203;42.672;23.334;2023-04-01T05:19:40;10.3;;;6.1;;
69917;SDS011;57203;42.672;23.334;2023-04-01T05:20:45;14.4;;;5.9;;
69917;SDS011;57203;42.672;23.334;2023-04-01T05:21:40;14.4;;;8.2;;
69917;SDS011;57203;42.672;23.334;2023-04-01T05:22:40;15.9;;;8.5;;
69917;SDS011;57203;42.672;23.334;2023-04-01T05:23:41;15.9;;;7.8;;
69917;SDS011;57203;42.672;23.334;2023-04-01T05:24:41;13.0;;;5.8;;
69917;SDS011;57203;42.672;23.334;2023-04-01T05:25:41;10.6;;;6.5;;
69917;SDS011;57203;42.672;23.334;2023-04-01T05:26:41;12.4;;;7.5;;
69917;SDS011;57203;42.672;23.334;2023-04-01T05:27:41;12.4;;;6.7;;
69917;SDS011;57203;42.672;23.334;2023-04-01T05:28:42;16.0;;;6.3;;
69917;SDS011;57203;42.672;23.334;2023-04-01T05:29:42;16.7;;;5.9;;
69917;SDS011;57203;42.672;23.334;2023-04-01T05:30:42;11.6;;;5.6;;
69917;SDS011;57203;42.672;23.334;2023-04-01T05:31:42;11.6;;;5.7;;
69917;SDS011;57203;42.672;23.334;2023-04-01T05:32:42;9.8;;;5.4;;
69917;SDS011;57203;42.672;23.334;2023-04-01T05:33:42;12.1;;;5.6;;
69917;SDS011;57203;42.672;23.334;2023-04-01T05:34:43;12.3;;;5.4;;
69917;SDS011;57203;42.672;23.334;2023-04-01T05:35:43;12.9;;;6.0;;
69917;SDS011;57203;42.672;23.334;2023-04-01T05:36:43;12.3;;;5.1;;
69917;SDS011;57203;42.672;23.334;2023-04-01T05:37:43;12.3;;;5.2;;
69917;SDS011;57203;42.672;23.334;2023-04-01T05:38:43;10.8;;;4.7;;
69917;SDS011;57203;42.672;23.334;2023-04-01T05:39:44;11.5;;;4.6;;
69917;SDS011;57203;42.672;23.334;2023-04-01T05:40:44;7.3;;;4.5;;
69917;SDS011;57203;42.672;23.334;2023-04-01T05:41:44;7.3;;;4.7;;
69917;SDS011;57203;42.672;23.334;2023-04-01T05:42:44;10.0;;;4.9;;
69917;SDS011;57203;42.672;23.334;2023-04-01T05:43:44;9.4;;;5.1;;
69917;SDS011;57203;42.672;23.334;2023-04-01T05:44:44;11.9;;;4.1;;
69917;SDS011;57203;42.672;23.334;2023-04-01T05:45:45;10.9;;;4.7;;
69917;SDS011;57203;42.672;23.334;2023-04-01T05:46:45;8.9;;;4.4;;
69917;SDS011;57203;42.672;23.334;2023-04-01T05:47:45;8.9;;;5.0;;
69917;SDS011;57203;42.672;23.334;2023-04-01T05:48:45;8.9;;;4.0;;
69917;SDS011;57203;42.672;23.334;2023-04-01T05:49:46;7.1;;;4.8;;
69917;SDS011;57203;42.672;23.334;2023-04-01T05:50:46;10.8;;;5.1;;
69917;SDS011;57203;42.672;23.334;2023-04-01T05:51:46;10.8;;;4.8;;
69917;SDS011;57203;42.672;23.334;2023-04-01T05:52:46;10.6;;;4.1;;
69917;SDS011;57203;42.672;23.334;2023-04-01T05:53:46;6.6;;;5.2;;
69917;SDS011;57203;42.672;23.334;2023-04-01T05:54:46;10.7;;;4.3;;
69917;SDS011;57203;42.672;23.334;2023-04-01T05:55:46;13.4;;;4.2;;
69917;SDS011;57203;42.672;23.334;2023-04-01T05:56:47;8.7;;;4.3;;
69917;SDS011;57203;42.672;23.334;2023-04-01T05:57:47;11.9;;;3.9;;
69917;SDS011;57203;42.672;23.334;2023-04-01T05:59:47;7.6;;;3.3;;
69917;SDS011;57203;42.672;23.334;2023-04-01T06:00:47;9.2;;;3.7;;
69917;SDS011;57203;42.672;23.334;2023-04-01T06:02:48;9.3;;;3.8;;
69917;SDS011;57203;42.672;23.334;2023-04-01T06:04:48;6.5;;;3.3;;
69917;SDS011;57203;42.672;23.334;2023-04-01T06:05:48;8.0;;;3.1;;
69917;SDS011;57203;42.672;23.334;2023-04-01T06:06:49;8.2;;;3.4;;
69917;SDS011;57203;42.672;23.334;2023-04-01T06:08:49;7.0;;;2.6;;
69917;SDS011;57203;42.672;23.334;2023-04-01T06:09:49;4.8;;;3.1;;
69917;SDS011;57203;42.672;23.334;2023-04-01T06:10:54;7.4;;;2.8;;
69917;SDS011;57203;42.672;23.334;2023-04-01T06:12:52;4.7;;;2.5;;
69917;SDS011;57203;42.672;23.334;2023-04-01T06:13:54;4.8;;;3.0;;
69917;SDS011;57203;42.672;23.334;2023-04-01T06:15:52;7.7;;;2.7;;
69917;SDS011;57203;42.672;23.334;2023-04-01T06:16:55;7.2;;;2.8;;
69917;SDS011;57203;42.672;23.334;2023-04-01T06:17:54;7.2;;;2.5;;
69917;SDS011;57203;42.672;23.334;2023-04-01T06:18:58;6.0;;;2.3;;
69917;SDS011;57203;42.672;23.334;2023-04-01T06:19:52;5.2;;;2.9;;
69917;SDS011;57203;42.672;23.334;2023-04-01T06:20:53;7.8;;;2.5;;
69917;SDS011;57203;42.672;23.334;2023-04-01T06:22:57;5.5;;;2.8;;
69917;SDS011;57203;42.672;23.334;2023-04-01T06:23:55;7.1;;;2.5;;
69917;SDS011;57203;42.672;23.334;2023-04-01T06:26:54;6.8;;;3.6;;
69917;SDS011;57203;42.672;23.334;2023-04-01T06:27:57;6.8;;;2.9;;
69917;SDS011;57203;42.672;23.334;2023-04-01T06:28:57;8.3;;;3.0;;
69917;SDS011;57203;42.672;23.334;2023-04-01T06:29:55;7.8;;;3.4;;
69917;SDS011;57203;42.672;23.334;2023-04-01T06:30:55;7.8;;;3.1;;
69917;SDS011;57203;42.672;23.334;2023-04-01T06:31:58;7.6;;;3.3;;
69917;SDS011;57203;42.672;23.334;2023-04-01T06:32:58;7.6;;;3.7;;
69917;SDS011;57203;42.672;23.334;2023-04-01T06:33:59;8.0;;;3.6;;
69917;SDS011;57203;42.672;23.334;2023-04-01T06:34:59;9.5;;;3.0;;
69917;SDS011;57203;42.672;23.334;2023-04-01T06:35:59;4.8;;;3.5;;
69917;SDS011;57203;42.672;23.334;2023-04-01T06:38:06;6.6;;;3.4;;
69917;SDS011;57203;42.672;23.334;2023-04-01T06:38:59;6.4;;;3.3;;
69917;SDS011;57203;42.672;23.334;2023-04-01T06:40:00;4.6;;;3.5;;
69917;SDS011;57203;42.672;23.334;2023-04-01T06:41:01;5.2;;;3.0;;
69917;SDS011;57203;42.672;23.334;2023-04-01T06:42:58;5.7;;;3.8;;
69917;SDS011;57203;42.672;23.334;2023-04-01T06:43:57;8.5;;;3.5;;